Tiempo atmosférico en la estación meteorológica de Alosno, Huelva (276 m.)

Fecha
DESCASC
Temp. máxima en grados centígrados (hora)
DESCASC
Temp. mínima en grados centígrados (hora)
DESCASC
Temp. media en grados centígrados
DESCASC
Racha de viento máxima en m/sg (hora)
DESCASC
Velocidad máxima media en intervalos de 10 minutos(hora)
DESCASC
Precipitaciones diarias en mm
DESCASC
Precipitaciones de 00:00 a 06:00 en mm
DESCASC
Precipitaciones de 06:00 a 12:00 en mm
DESCASC
Precipitaciones de 12:00 a 18:00 en mm
DESCASC
Precipitaciones de 18:00 a 24:00 en mm
DESCASC

Gráficas

Temp. máximas Temp. mínimas Temp. medias Precipitaciones Rachas de viento máximas Velocidades máximas media en intervalos de 10 minutos

Datos horarios

Fecha y hora oficial Temperatura (ºC) Velocidad del viento (km/h) Dirección del viento Racha (km/h) Dirección de racha Precipitación (mm) Presión (hPa) Tendencia (hPa) Humedad (%)
2017-11-23 23:00:00 15 8 Sur 20 Sudeste 0 -- -- 89
2017-11-23 22:00:00 15.1 10 Sur 22 Sudeste 0 -- -- 87
2017-11-23 21:00:00 15.4 16 Sur 26 Sudeste 0 -- -- 86
2017-11-23 20:00:00 15.7 16 Sudeste 27 Sudeste 0 -- -- 85
2017-11-23 19:00:00 16.2 17 Sudeste 28 Sudeste 0 -- -- 86
2017-11-23 18:00:00 17.1 21 Sur 36 Sur 0 -- -- 82
2017-11-23 17:00:00 18.8 22 Sur 44 Sur 0 -- -- 61
2017-11-23 16:00:00 20.5 22 Sur 38 Sur 0 -- -- 52
2017-11-23 15:00:00 19.9 25 Sur 39 Sur 0 -- -- 58
2017-11-23 14:00:00 19.2 22 Sur 36 Sudeste 0 -- -- 60
2017-11-23 13:00:00 17.9 13 Sudeste 30 Sudeste 0 -- -- 63
2017-11-23 12:00:00 16.6 12 Sur 30 Sudeste 0 -- -- 76
2017-11-23 11:00:00 15.3 11 Sudeste 23 Sur 0 -- -- 81
2017-11-23 10:00:00 14.4 9 Sudeste 19 Sudeste 0 -- -- 93
2017-11-23 09:00:00 13.9 10 Sudeste 26 Sudeste 0 -- -- 97
2017-11-23 08:00:00 13.9 17 Sudeste 28 Sudeste 0 -- -- 99
2017-11-23 07:00:00 14 17 Sudeste 28 Sudeste 0 -- -- 100
2017-11-23 06:00:00 14.3 15 Sudeste 24 Sudeste 0 -- -- 100
2017-11-23 05:00:00 14.5 12 Sudeste 21 Sudeste 0 -- -- 100
2017-11-23 04:00:00 14.3 13 Sudeste 18 Sudeste 0 -- -- 100
2017-11-23 03:00:00 14.3 10 Sudeste 22 Sudeste 0 -- -- 99
2017-11-23 02:00:00 13.8 13 Sudeste 17 Sudeste 0 -- -- 99
2017-11-23 01:00:00 13.6 8 Este 18 Sudeste 0 -- -- 97
2017-11-23 00:00:00 13.9 9 Este 24 Sudeste 0 -- -- 95
2017-11-22 23:00:00 14.5 11 Sudeste 20 Sudeste 0 -- -- 95
2017-11-22 22:00:00 14.3 9 Sudeste 25 Sudeste 0 -- -- 92
2017-11-22 21:00:00 14.7 17 Sudeste 24 Sudeste 0 -- -- 92
2017-11-22 20:00:00 14.6 11 Sur 22 Sur 0 -- -- 90
2017-11-22 19:00:00 15 15 Sur 23 Sudeste 0 -- -- 79
2017-11-22 18:00:00 16.9 14 Sur 23 Sur 0 -- -- 61
2017-11-22 17:00:00 18.9 15 Sur 32 Sur 0 -- -- 40
2017-11-22 16:00:00 20.1 20 Sur 36 Sur 0 -- -- 28
2017-11-22 15:00:00 20.1 29 Sur 39 Sur 0 -- -- 27
2017-11-22 14:00:00 19.9 24 Sur 33 Sur 0 -- -- 27
2017-11-22 13:00:00 18.4 24 Sur 32 Sur 0 -- -- 33
2017-11-22 12:00:00 17.6 15 Sur 25 Sur 0 -- -- 37
2017-11-22 11:00:00 16.5 12 Sudeste 21 Sudeste 0 -- -- 41
2017-11-22 10:00:00 14.9 14 Sudeste 21 Sudeste 0 -- -- 46
2017-11-22 09:00:00 11.4 9 Este 15 Este 0 -- -- 58
2017-11-22 08:00:00 9.7 6 Este 11 Sudeste 0 -- -- 64
2017-11-22 07:00:00 11.8 6 Sudeste 16 Sudeste 0 -- -- 60
2017-11-22 06:00:00 12.4 9 Sudeste 15 Sudeste 0 -- -- 65
2017-11-22 05:00:00 11.4 2 Este 19 Sudeste 0 -- -- 56
2017-11-22 04:00:00 14.8 14 Sudeste 21 Sudeste 0 -- -- 51
2017-11-22 03:00:00 11 6 Sudeste 13 Sudeste 0 -- -- 56
2017-11-22 02:00:00 11.4 3 Nordeste 18 Sudeste 0 -- -- 56
2017-11-22 01:00:00 12.9 4 Este 15 Sudeste 0 -- -- 53
2017-11-22 00:00:00 14.1 9 Sudeste 14 Sudeste 0 -- -- 56
2017-11-21 23:00:00 13.5 7 Este 10 Este 0 -- -- 56
2017-11-21 22:00:00 14.3 0 Calma 9 Sudeste 0 -- -- 58
2017-11-21 21:00:00 15.1 4 Sur 10 Sur 0 -- -- 52
2017-11-21 20:00:00 16.6 8 Sur 18 Sudeste 0 -- -- 45
2017-11-21 19:00:00 16.8 8 Sur 17 Sudeste 0 -- -- 46
2017-11-21 18:00:00 18.3 10 Sur 21 Sur 0 -- -- 44
2017-11-21 17:00:00 20.7 12 Sur 24 Sudeste 0 -- -- 34
2017-11-21 16:00:00 21.3 16 Sur 27 Sur 0 -- -- 30
2017-11-21 15:00:00 21.7 15 Sur 25 Sur 0 -- -- 28
2017-11-21 14:00:00 21.6 13 Sur 27 Sudeste 0 -- -- 27
2017-11-21 13:00:00 20.4 13 Sur 22 Sur 0 -- -- 31
2017-11-21 12:00:00 19.2 8 Sudeste 23 Sudeste 0 -- -- 34
2017-11-21 11:00:00 17 10 Este 19 Sudeste 0 -- -- 38
2017-11-21 10:00:00 14.5 7 Este 12 Este 0 -- -- 43
2017-11-21 09:00:00 12.2 8 Este 10 Este 0 -- -- 49
2017-11-21 08:00:00 12.1 3 Sudeste 6 Sudoeste 0 -- -- 48
2017-11-21 07:00:00 12.8 4 Este 12 Sur 0 -- -- 46
2017-11-21 06:00:00 12.7 7 Sudeste 11 Sudeste 0 -- -- 48
2017-11-21 05:00:00 13.5 6 Este 8 Este 0 -- -- 44
2017-11-21 04:00:00 13.4 3 Este 8 Este 0 -- -- 43
2017-11-21 03:00:00 13.4 5 Este 6 Este 0 -- -- 43
2017-11-21 02:00:00 12.8 4 Este 9 Este 0 -- -- 44
2017-11-21 01:00:00 13.8 7 Este 9 Este 0 -- -- 46
2017-11-21 00:00:00 14.1 5 Este 8 Nordeste 0 -- -- 50
2017-11-20 23:00:00 15 3 Sudoeste 9 Sudoeste 0 -- -- 47
2017-11-20 22:00:00 14.6 9 Sur 12 Sur 0 -- -- 49
2017-11-20 21:00:00 15.9 4 Oeste 10 Oeste 0 -- -- 44
2017-11-20 20:00:00 16.5 9 Oeste 12 Oeste 0 -- -- 42
2017-11-20 19:00:00 18.2 9 Sudoeste 15 Sudoeste 0 -- -- 36
2017-11-20 18:00:00 20.5 12 Sur 21 Sur 0 -- -- 31
2017-11-20 17:00:00 22.1 13 Sur 22 Sudeste 0 -- -- 26
2017-11-20 16:00:00 23 11 Sur 22 Sudoeste 0 -- -- 25
2017-11-20 15:00:00 22.5 12 Sudeste 24 Sur 0 -- -- 25
2017-11-20 14:00:00 22.5 5 Sudeste 15 Este 0 -- -- 28
2017-11-20 13:00:00 21 7 Sudeste 18 Sudeste 0 -- -- 31
2017-11-20 12:00:00 19.3 8 Sudeste 16 Este 0 -- -- 35
2017-11-20 11:00:00 17.5 8 Este 15 Este 0 -- -- 42
2017-11-20 10:00:00 15.5 6 Este 12 Este 0 -- -- 47
2017-11-20 09:00:00 12.8 7 Este 10 Este 0 -- -- 56
2017-11-20 08:00:00 11.7 6 Este 8 Este 0 -- -- 58
2017-11-20 07:00:00 12.7 6 Sudeste 10 Este 0 -- -- 55
2017-11-20 06:00:00 12.4 7 Este 9 Este 0 -- -- 54
2017-11-20 05:00:00 12.7 6 Sudeste 10 Este 0 -- -- 52
2017-11-20 04:00:00 13 5 Este 10 Este 0 -- -- 51
2017-11-20 03:00:00 13.3 8 Este 13 Este 0 -- -- 49
2017-11-20 02:00:00 13.3 6 Este 10 Este 0 -- -- 50
2017-11-20 01:00:00 14.1 4 Este 9 Este 0 -- -- 51
2017-11-20 00:00:00 14.9 4 Este 6 Este 0 -- -- 47
2017-11-19 23:00:00 15.2 4 Este 6 Este 0 -- -- 48
2017-11-19 22:00:00 15.9 5 Este 6 Este 0 -- -- 45
2017-11-19 21:00:00 16.2 4 Sudeste 5 Este 0 -- -- 45
2017-11-19 20:00:00 16.4 3 Sudeste 6 Sudoeste 0 -- -- 45
2017-11-19 19:00:00 17.8 7 Sur 13 Sur 0 -- -- 38
2017-11-19 18:00:00 20.3 9 Sur 16 Sur 0 -- -- 32
2017-11-19 17:00:00 21.8 9 Sur 16 Sudoeste 0 -- -- 31
2017-11-19 16:00:00 22.4 7 Sur 17 Sudoeste 0 -- -- 30
2017-11-19 15:00:00 22 9 Sudeste 16 Sudeste 0 -- -- 31
2017-11-19 14:00:00 21.8 9 Sur 16 Sudeste 0 -- -- 32
2017-11-19 13:00:00 20.4 9 Sudeste 30 Este 0 -- -- 31
2017-11-19 12:00:00 19.1 10 Este 21 Este 0 -- -- 35
2017-11-19 11:00:00 17.2 8 Este 14 Este 0 -- -- 42
2017-11-19 10:00:00 15.1 4 Este 10 Este 0 -- -- 49
2017-11-19 09:00:00 12.9 8 Este 10 Este 0 -- -- 55
2017-11-19 08:00:00 10.9 6 Este 7 Este 0 -- -- 64
2017-11-19 07:00:00 10.5 5 Nordeste 11 Sudeste 0 -- -- 64
2017-11-19 06:00:00 12.7 6 Sudeste 14 Sudeste 0 -- -- 59
2017-11-19 05:00:00 11.6 9 Este 13 Sudeste 0 -- -- 62
2017-11-19 04:00:00 12.3 6 Este 7 Este 0 -- -- 61
2017-11-19 03:00:00 12.2 3 Nordeste 6 Nordeste 0 -- -- 63
2017-11-19 02:00:00 12.4 3 Este 4 Nordeste 0 -- -- 60
2017-11-19 01:00:00 13.5 3 Este 8 Este 0 -- -- 64
2017-11-19 00:00:00 14.4 6 Este 7 Este 0 -- -- 64
2017-11-18 23:00:00 14.5 4 Este 5 Este 0 -- -- 68
2017-11-18 22:00:00 14.7 3 Este 5 Este 0 -- -- 69
2017-11-18 21:00:00 16.2 4 Sudoeste 8 Oeste 0 -- -- 65
2017-11-18 20:00:00 16.3 8 Sudoeste 12 Sudoeste 0 -- -- 69
2017-11-18 19:00:00 17.6 7 Sudoeste 17 Sudoeste 0 -- -- 56
2017-11-18 18:00:00 20.8 8 Sur 11 Sur 0 -- -- 38
2017-11-18 17:00:00 22.2 6 Sudoeste 12 Sudoeste 0 -- -- 34
2017-11-18 16:00:00 22.6 7 Sur 12 Sur 0 -- -- 34
2017-11-18 15:00:00 22.2 4 Sur 9 Sudeste 0 -- -- 34
2017-11-18 14:00:00 21.1 5 Sudeste 12 Sudoeste 0 -- -- 38
2017-11-18 13:00:00 19.8 4 Este 12 Sur 0 -- -- 43
2017-11-18 12:00:00 18.9 4 Sur 10 Sudoeste 0 -- -- 48
2017-11-18 11:00:00 17.1 2 Sur 6 Este 0 -- -- 54
2017-11-18 10:00:00 14.3 4 Este 10 Este 0 -- -- 60
2017-11-18 09:00:00 11.7 8 Este 10 Este 0 -- -- 67
2017-11-18 08:00:00 10.2 7 Este 10 Sudeste 0 -- -- 71
2017-11-18 07:00:00 10.4 5 Este 10 Sudeste 0 -- -- 71
2017-11-18 06:00:00 11.1 7 Este 8 Sudeste 0 -- -- 70
2017-11-18 05:00:00 11.2 6 Este 8 Este 0 -- -- 67
2017-11-18 04:00:00 11.2 3 Nordeste 4 Nordeste 0 -- -- 69
2017-11-18 03:00:00 11.4 0 Calma 4 Norte 0 -- -- 69
2017-11-18 02:00:00 12.2 3 Oeste 5 Oeste 0 -- -- 72
2017-11-18 01:00:00 13.4 5 Nordeste 6 Nordeste 0 -- -- 67
2017-11-18 00:00:00 15.4 3 Este 5 Este 0 -- -- 49
2017-11-17 23:00:00 15.5 3 Nordeste 5 Nordeste 0 -- -- 48
2017-11-17 22:00:00 15.5 2 Nordeste 4 Norte 0 -- -- 49
2017-11-17 21:00:00 16.4 2 Noroeste 10 Noroeste 0 -- -- 48
2017-11-17 20:00:00 16.8 8 Noroeste 13 Noroeste 0 -- -- 47
2017-11-17 19:00:00 18.3 3 Oeste 6 Noroeste 0 -- -- 42
2017-11-17 18:00:00 21.1 0 Calma 5 Este 0 -- -- 34
2017-11-17 17:00:00 21.7 3 Nordeste 9 Este 0 -- -- 33
2017-11-17 16:00:00 21.7 3 Norte 9 Sudoeste 0 -- -- 33
2017-11-17 15:00:00 21.4 4 Noroeste 10 Sudeste 0 -- -- 36
2017-11-17 14:00:00 21.1 5 Sur 9 Sudeste 0 -- -- 39
2017-11-17 13:00:00 19.4 5 Sudeste 9 Sur 0 -- -- 46
2017-11-17 12:00:00 17.9 3 Sur 9 Sudoeste 0 -- -- 52
2017-11-17 11:00:00 16 8 Sur 11 Sur 0 -- -- 60
2017-11-17 10:00:00 14.3 5 Este 8 Este 0 -- -- 61
2017-11-17 09:00:00 12.1 4 Sudeste 11 Sudeste 0 -- -- 64
2017-11-17 08:00:00 10.2 6 Este 8 Sudeste 0 -- -- 70
2017-11-17 07:00:00 10.7 4 Este 6 Sudeste 0 -- -- 68
2017-11-17 06:00:00 10.6 2 Nordeste 6 Este 0 -- -- 72
2017-11-17 05:00:00 10.8 4 Este 9 Este 0 -- -- 68
2017-11-17 04:00:00 11.9 5 Este 8 Este 0 -- -- 65
2017-11-17 03:00:00 11.7 5 Este 7 Este 0 -- -- 66
2017-11-17 02:00:00 11.6 4 Este 7 Nordeste 0 -- -- 69
2017-11-17 01:00:00 12.8 3 Nordeste 7 Nordeste 0 -- -- 64
2017-11-17 00:00:00 13.6 0 Calma 0 Calma 0 -- -- 59
2017-11-16 23:00:00 14.2 0 Calma 7 Oeste 0 -- -- 62
2017-11-16 22:00:00 14.2 6 Oeste 9 Sudoeste 0 -- -- 64
2017-11-16 21:00:00 15.1 6 Sudoeste 12 Sudoeste 0 -- -- 61
2017-11-16 20:00:00 15.5 10 Sudoeste 13 Sudoeste 0 -- -- 61
2017-11-16 19:00:00 17.1 9 Sudoeste 17 Sur 0 -- -- 54
2017-11-16 18:00:00 20 10 Sur 15 Sudoeste 0 -- -- 42
2017-11-16 17:00:00 21.6 3 Sur 8 Sur 0 -- -- 36
2017-11-16 16:00:00 21.6 4 Este 10 Oeste 0 -- -- 36
2017-11-16 15:00:00 21.3 5 Sur 11 Sudeste 0 -- -- 38
2017-11-16 14:00:00 19.8 2 Nordeste 9 Noroeste 0 -- -- 40
2017-11-16 13:00:00 19.3 4 Sur 10 Sudoeste 0 -- -- 46
2017-11-16 12:00:00 17.9 5 Sudeste 12 Sur 0 -- -- 50
2017-11-16 11:00:00 16.6 8 Sur 10 Sur 0 -- -- 52
2017-11-16 10:00:00 14.8 4 Sur 9 Sur 0 -- -- 59
2017-11-16 09:00:00 11.8 4 Este 10 Este 0 -- -- 71
2017-11-16 08:00:00 10.3 6 Este 8 Este 0 -- -- 77
2017-11-16 07:00:00 9.9 5 Este 6 Este 0 -- -- 83
2017-11-16 06:00:00 9.2 5 Noroeste 9 Noroeste 0 -- -- 88
2017-11-16 05:00:00 9.8 5 Oeste 9 Noroeste 0 -- -- 88
2017-11-16 04:00:00 10 5 Noroeste 10 Noroeste 0 -- -- 91
2017-11-16 03:00:00 10.2 8 Noroeste 15 Noroeste 0 -- -- 89
2017-11-16 02:00:00 11 10 Noroeste 16 Noroeste 0 -- -- 85
2017-11-16 01:00:00 11.6 9 Noroeste 13 Noroeste 0 -- -- 82
2017-11-16 00:00:00 12.7 9 Noroeste 12 Noroeste 0 -- -- 74
2017-11-15 23:00:00 13.3 8 Noroeste 12 Noroeste 0 -- -- 73
2017-11-15 22:00:00 13.7 10 Noroeste 14 Oeste 0 -- -- 71
2017-11-15 21:00:00 13.8 10 Noroeste 14 Oeste 0 -- -- 68
2017-11-15 20:00:00 15.1 9 Oeste 14 Noroeste 0 -- -- 63
2017-11-15 19:00:00 16.5 9 Oeste 13 Oeste 0 -- -- 58
2017-11-15 18:00:00 18.8 4 Noroeste 12 Oeste 0 -- -- 49
2017-11-15 17:00:00 19.6 3 Noroeste 10 Noroeste 0 -- -- 46
2017-11-15 16:00:00 20.2 5 Noroeste 14 Sur 0 -- -- 45
2017-11-15 15:00:00 20.1 7 Sudoeste 14 Sur 0 -- -- 46
2017-11-15 14:00:00 19.5 10 Sudoeste 19 Sur 0 -- -- 47
2017-11-15 13:00:00 18.3 5 Sudeste 15 Este 0 -- -- 50
2017-11-15 12:00:00 16.5 7 Este 13 Este 0 -- -- 52
2017-11-15 11:00:00 14.8 6 Este 12 Este 0 -- -- 49
2017-11-15 10:00:00 12.5 4 Este 8 Este 0 -- -- 46
2017-11-15 09:00:00 10.4 5 Este 12 Este 0 -- -- 46
2017-11-15 08:00:00 9.1 5 Este 9 Este 0 -- -- 47
2017-11-15 07:00:00 8.7 4 Este 10 Este 0 -- -- 51
2017-11-15 06:00:00 9.5 5 Este 10 Este 0 -- -- 47
2017-11-15 05:00:00 9.9 7 Este 9 Este 0 -- -- 45
2017-11-15 04:00:00 10.1 6 Este 8 Este 0 -- -- 47
2017-11-15 03:00:00 11.3 6 Este 10 Este 0 -- -- 49
2017-11-15 02:00:00 11.8 6 Este 17 Sudeste 0 -- -- 43
2017-11-15 01:00:00 12.9 12 Sudeste 17 Sudeste 0 -- -- 38
2017-11-15 00:00:00 12.9 8 Sudeste 17 Sur 0 -- -- 39
2017-11-14 23:00:00 12.7 12 Sur 24 Sur 0 -- -- 48
2017-11-14 22:00:00 12.9 20 Sur 26 Sur 0 -- -- 54
2017-11-14 21:00:00 13.2 8 Nordeste 13 Este 0 -- -- 42
2017-11-14 20:00:00 14.5 6 Noroeste 15 Norte 0 -- -- 39
2017-11-14 19:00:00 16.3 10 Noroeste 17 Noroeste 0 -- -- 31
2017-11-14 18:00:00 18.5 10 Noroeste 20 Noroeste 0 -- -- 27
2017-11-14 17:00:00 19.9 11 Noroeste 19 Noroeste 0 -- -- 26
2017-11-14 16:00:00 20.3 8 Noroeste 18 Noroeste 0 -- -- 26
2017-11-14 15:00:00 19.3 8 Noroeste 21 Noroeste 0 -- -- 27
2017-11-14 14:00:00 18.7 5 Noroeste 13 Norte 0 -- -- 26
2017-11-14 13:00:00 18 5 Sur 16 Sudeste 0 -- -- 26
2017-11-14 12:00:00 16 8 Este 25 Este 0 -- -- 30
2017-11-14 11:00:00 14.4 12 Este 27 Este 0 -- -- 30
2017-11-14 10:00:00 12.8 10 Nordeste 16 Nordeste 0 -- -- 42
2017-11-14 09:00:00 10.2 2 Noroeste 10 Este 0 -- -- 56
2017-11-14 08:00:00 9.7 7 Este 12 Este 0 -- -- 59
2017-11-14 07:00:00 10 8 Nordeste 15 Este 0 -- -- 59
2017-11-14 06:00:00 10.2 10 Este 14 Este 0 -- -- 62
2017-11-14 05:00:00 10.2 7 Este 10 Este 0 -- -- 65
2017-11-14 04:00:00 11 7 Nordeste 18 Este 0 -- -- 61
2017-11-14 03:00:00 12.6 12 Este 21 Este 0 -- -- 54
2017-11-14 02:00:00 12.9 9 Este 15 Sudeste 0 -- -- 55
2017-11-14 01:00:00 13 9 Este 13 Este 0 -- -- 55
2017-11-14 00:00:00 13.4 4 Este 10 Nordeste 0 -- -- 51
2017-11-13 23:00:00 14.3 9 Nordeste 13 Nordeste 0 -- -- 51
2017-11-13 22:00:00 14.4 9 Nordeste 12 Nordeste 0 -- -- 53
2017-11-13 21:00:00 15 11 Nordeste 13 Nordeste 0 -- -- 52
2017-11-13 20:00:00 15.8 9 Norte 17 Norte 0 -- -- 52
2017-11-13 19:00:00 16.2 8 Noroeste 16 Norte 0 -- -- 54
2017-11-13 18:00:00 18.3 13 Norte 27 Noroeste 0 -- -- 49
2017-11-13 17:00:00 19 15 Norte 25 Norte 0 -- -- 48
2017-11-13 16:00:00 18.9 15 Noroeste 28 Noroeste 0 -- -- 51
2017-11-13 15:00:00 18.1 15 Noroeste 32 Norte 0 -- -- 53
2017-11-13 14:00:00 16.4 21 Noroeste 37 Norte 0 -- -- 58
2017-11-13 13:00:00 14.2 23 Noroeste 43 Norte 0 -- -- 71
2017-11-13 12:00:00 11.5 25 Noroeste 36 Noroeste 0 -- -- 85
2017-11-13 11:00:00 10.2 21 Noroeste 35 Norte 0 -- -- 90
2017-11-13 10:00:00 8.9 18 Noroeste 25 Noroeste 0 -- -- 98
2017-11-13 09:00:00 7.6 18 Noroeste 27 Noroeste 0 -- -- 99
2017-11-13 08:00:00 7 17 Noroeste 26 Noroeste 0 -- -- 98
2017-11-13 07:00:00 7.6 16 Noroeste 27 Noroeste 0 -- -- 97
2017-11-13 06:00:00 8.1 19 Noroeste 27 Noroeste 0 -- -- 96
2017-11-13 05:00:00 8.2 15 Noroeste 24 Noroeste 0 -- -- 96
2017-11-13 04:00:00 9.1 18 Noroeste 25 Noroeste 0 -- -- 92
2017-11-13 03:00:00 9.1 15 Noroeste 24 Noroeste 0 -- -- 91
2017-11-13 02:00:00 10.1 17 Noroeste 30 Noroeste 0 -- -- 87
2017-11-13 01:00:00 11.5 13 Noroeste 24 Oeste 0 -- -- 79
2017-11-13 00:00:00 11.5 14 Noroeste 22 Noroeste 0 -- -- 76
2017-11-12 23:00:00 12.9 8 Noroeste 16 Noroeste 0 -- -- 70
2017-11-12 22:00:00 12.8 9 Noroeste 19 Noroeste 0 -- -- 67
2017-11-12 21:00:00 14.3 12 Noroeste 17 Noroeste 0 -- -- 62
2017-11-12 20:00:00 15.5 8 Noroeste 15 Noroeste 0 -- -- 60
2017-11-12 19:00:00 16.7 11 Noroeste 19 Noroeste 0 -- -- 54
2017-11-12 18:00:00 19.8 12 Noroeste 27 Noroeste 0 -- -- 44
2017-11-12 17:00:00 21.3 16 Noroeste 26 Noroeste 0 -- -- 39
2017-11-12 16:00:00 21.9 14 Noroeste 27 Noroeste 0 -- -- 35
2017-11-12 15:00:00 21.6 17 Noroeste 28 Noroeste 0 -- -- 36
2017-11-12 14:00:00 20.7 14 Noroeste 24 Noroeste 0 -- -- 42
2017-11-12 13:00:00 18.7 12 Noroeste 24 Noroeste 0 -- -- 51
2017-11-12 12:00:00 16.2 14 Noroeste 21 Noroeste 0 -- -- 62
2017-11-12 11:00:00 13.9 10 Noroeste 17 Oeste 0 -- -- 68
2017-11-12 10:00:00 10.6 8 Noroeste 15 Noroeste 0 -- -- 80
2017-11-12 09:00:00 9.4 6 Oeste 14 Noroeste 0 -- -- 82
2017-11-12 08:00:00 8.9 8 Noroeste 11 Noroeste 0 -- -- 84
2017-11-12 07:00:00 9.1 8 Noroeste 12 Noroeste 0 -- -- 82
2017-11-12 06:00:00 10.6 4 Oeste 11 Oeste 0 -- -- 74
2017-11-12 05:00:00 10.4 6 Oeste 12 Oeste 0 -- -- 75
2017-11-12 04:00:00 10.8 8 Oeste 12 Oeste 0 -- -- 72
2017-11-12 03:00:00 11.1 6 Oeste 13 Noroeste 0 -- -- 68
2017-11-12 02:00:00 11.9 12 Noroeste 14 Noroeste 0 -- -- 64
2017-11-12 01:00:00 12.9 8 Noroeste 13 Noroeste 0 -- -- 59
2017-11-12 00:00:00 13.1 11 Noroeste 14 Noroeste 0 -- -- 59
2017-11-11 23:00:00 15.8 8 Norte 13 Norte 0 -- -- 50
2017-11-11 22:00:00 15.5 4 Nordeste 12 Norte 0 -- -- 51
2017-11-11 21:00:00 15.8 3 Norte 15 Norte 0 -- -- 51
2017-11-11 20:00:00 16 9 Noroeste 18 Noroeste 0 -- -- 50
2017-11-11 19:00:00 17.8 11 Noroeste 20 Noroeste 0 -- -- 44
2017-11-11 18:00:00 20.5 14 Noroeste 23 Norte 0 -- -- 38
2017-11-11 17:00:00 21.8 14 Norte 24 Norte 0 -- -- 34
2017-11-11 16:00:00 22.5 12 Norte 24 Norte 0 -- -- 34
2017-11-11 15:00:00 22.3 11 Noroeste 21 Norte 0 -- -- 34
2017-11-11 14:00:00 21.4 9 Norte 18 Noroeste 0 -- -- 37
2017-11-11 13:00:00 21.1 5 Noroeste 12 Oeste 0 -- -- 39
2017-11-11 12:00:00 20.2 5 Este 10 Este 0 -- -- 40
2017-11-11 11:00:00 18.1 4 Norte 6 Nordeste 0 -- -- 45
2017-11-11 10:00:00 15.7 3 Nordeste 6 Este 0 -- -- 51
2017-11-11 09:00:00 13.3 3 Nordeste 5 Este 0 -- -- 55
2017-11-11 08:00:00 12 3 Este 4 Este 0 -- -- 58
2017-11-11 07:00:00 9.1 4 Noroeste 10 Noroeste 0 -- -- 66
2017-11-11 06:00:00 9.1 7 Noroeste 11 Oeste 0 -- -- 68
2017-11-11 05:00:00 9.9 4 Oeste 10 Noroeste 0 -- -- 61
2017-11-11 04:00:00 10.9 7 Noroeste 10 Noroeste 0 -- -- 56
2017-11-11 03:00:00 11.7 5 Norte 9 Noroeste 0 -- -- 53
2017-11-11 02:00:00 11.9 4 Sudoeste 9 Oeste 0 -- -- 54
2017-11-11 01:00:00 13.2 0 Calma 4 Nordeste 0 -- -- 50
2017-11-11 00:00:00 13.1 2 Norte 7 Nordeste 0 -- -- 52
2017-11-10 23:00:00 13.6 4 Norte 12 Norte 0 -- -- 47
2017-11-10 22:00:00 14.1 7 Nordeste 10 Nordeste 0 -- -- 45
2017-11-10 21:00:00 14.1 9 Nordeste 14 Norte 0 -- -- 45
2017-11-10 20:00:00 14.5 6 Nordeste 16 Norte 0 -- -- 43
2017-11-10 19:00:00 16.2 8 Norte 19 Nordeste 0 -- -- 39
2017-11-10 18:00:00 18.6 11 Norte 30 Nordeste 0 -- -- 35
2017-11-10 17:00:00 19.7 15 Nordeste 26 Norte 0 -- -- 34
2017-11-10 16:00:00 19.7 14 Nordeste 34 Nordeste 0 -- -- 35
2017-11-10 15:00:00 19.7 18 Nordeste 35 Nordeste 0 -- -- 35
2017-11-10 14:00:00 19.4 11 Nordeste 30 Norte 0 -- -- 36
2017-11-10 13:00:00 17.3 11 Norte 23 Nordeste 0 -- -- 38
2017-11-10 12:00:00 15.9 11 Nordeste 19 Norte 0 -- -- 36
2017-11-10 11:00:00 14.2 8 Norte 15 Noroeste 0 -- -- 37
2017-11-10 10:00:00 10.9 4 Norte 9 Norte 0 -- -- 49
2017-11-10 09:00:00 7.5 3 Oeste 6 Noroeste 0 -- -- 59
2017-11-10 08:00:00 7.1 2 Oeste 9 Noroeste 0 -- -- 59
2017-11-10 07:00:00 7.4 9 Noroeste 15 Nordeste 0 -- -- 58
2017-11-10 06:00:00 9.2 9 Nordeste 15 Nordeste 0 -- -- 52
2017-11-10 05:00:00 9 7 Nordeste 12 Nordeste 0 -- -- 52
2017-11-10 04:00:00 9.4 8 Norte 12 Norte 0 -- -- 50
2017-11-10 03:00:00 9.4 5 Norte 14 Norte 0 -- -- 49
2017-11-10 02:00:00 9.8 7 Norte 15 Norte 0 -- -- 47
2017-11-10 01:00:00 10.4 9 Nordeste 15 Nordeste 0 -- -- 45
2017-11-10 00:00:00 10.8 10 Norte 18 Nordeste 0 -- -- 43
2017-11-09 23:00:00 11.1 10 Norte 19 Norte 0 -- -- 42
2017-11-09 22:00:00 11.9 17 Norte 23 Nordeste 0 -- -- 40
2017-11-09 21:00:00 12.3 14 Nordeste 23 Norte 0 -- -- 41
2017-11-09 20:00:00 13.1 14 Norte 22 Nordeste 0 -- -- 37
2017-11-09 19:00:00 14 15 Nordeste 27 Nordeste 0 -- -- 34
2017-11-09 18:00:00 15.8 15 Nordeste 32 Nordeste 0 -- -- 29
2017-11-09 17:00:00 17 17 Nordeste 32 Nordeste 0 -- -- 28
2017-11-09 16:00:00 17.5 14 Norte 30 Este 0 -- -- 26
2017-11-09 15:00:00 17.6 13 Nordeste 31 Nordeste 0 -- -- 26
2017-11-09 14:00:00 16.9 22 Nordeste 33 Nordeste 0 -- -- 25
2017-11-09 13:00:00 16.2 15 Nordeste 32 Nordeste 0 -- -- 29
2017-11-09 12:00:00 15 18 Nordeste 32 Nordeste 0 -- -- 31
2017-11-09 11:00:00 13.8 22 Nordeste 33 Nordeste 0 -- -- 36
2017-11-09 10:00:00 12.7 14 Nordeste 26 Nordeste 0 -- -- 39
2017-11-09 09:00:00 10.5 10 Norte 18 Norte 0 -- -- 49
2017-11-09 08:00:00 9.7 12 Norte 15 Norte 0 -- -- 53
2017-11-09 07:00:00 9.5 7 Norte 12 Norte 0 -- -- 56
2017-11-09 06:00:00 8.7 3 Noroeste 6 Noroeste 0 -- -- 62
2017-11-09 05:00:00 9 4 Oeste 12 Noroeste 0 -- -- 61
2017-11-09 04:00:00 10.2 9 Noroeste 16 Noroeste 0 -- -- 55
2017-11-09 03:00:00 11.7 6 Norte 12 Norte 0 -- -- 49
2017-11-09 02:00:00 12 8 Norte 18 Nordeste 0 -- -- 46
2017-11-09 01:00:00 12.2 6 Norte 15 Nordeste 0 -- -- 45
2017-11-09 00:00:00 13.2 12 Nordeste 25 Nordeste 0 -- -- 42
2017-11-08 23:00:00 13.3 13 Nordeste 22 Nordeste 0 -- -- 55
2017-11-08 22:00:00 14.5 14 Nordeste 23 Norte 0 -- -- 56
2017-11-08 21:00:00 14.7 13 Norte 20 Norte 0 -- -- 57
2017-11-08 20:00:00 15 12 Norte 23 Norte 0 -- -- 56
2017-11-08 19:00:00 15.5 9 Norte 22 Noroeste 0 -- -- 56
2017-11-08 18:00:00 17.3 18 Norte 32 Noroeste 0 -- -- 50
2017-11-08 17:00:00 18.3 15 Norte 32 Norte 0 -- -- 48
2017-11-08 16:00:00 18.6 17 Norte 31 Noroeste 0 -- -- 47
2017-11-08 15:00:00 19.1 17 Noroeste 30 Noroeste 0 -- -- 44
2017-11-08 14:00:00 18.6 17 Norte 29 Noroeste 0 -- -- 44
2017-11-08 13:00:00 19 10 Noroeste 18 Noroeste 0 -- -- 47
2017-11-08 12:00:00 17.2 8 Noroeste 14 Noroeste 0 -- -- 56
2017-11-08 11:00:00 14.4 6 Noroeste 14 Noroeste 0 -- -- 67
2017-11-08 10:00:00 10.9 6 Noroeste 20 Noroeste 0 -- -- 84
2017-11-08 09:00:00 8.6 8 Oeste 17 Noroeste 0 -- -- 92
2017-11-08 08:00:00 7.6 9 Noroeste 18 Noroeste 0 -- -- 94
2017-11-08 07:00:00 7.8 10 Noroeste 18 Noroeste 0 -- -- 94
2017-11-08 06:00:00 8.5 5 Noroeste 18 Noroeste 0 -- -- 89
2017-11-08 05:00:00 8.5 14 Noroeste 24 Noroeste 0 -- -- 90
2017-11-08 04:00:00 9 12 Noroeste 20 Noroeste 0 -- -- 87
2017-11-08 03:00:00 9.7 11 Noroeste 16 Noroeste 0 -- -- 82
2017-11-08 02:00:00 10.2 9 Noroeste 16 Noroeste 0 -- -- 77
2017-11-08 01:00:00 11.3 9 Noroeste 12 Noroeste 0 -- -- 70
2017-11-08 00:00:00 12.2 5 Noroeste 18 Noroeste 0 -- -- 63
2017-11-07 23:00:00 14 13 Noroeste 20 Noroeste 0 -- -- 54
2017-11-07 22:00:00 14.6 8 Noroeste 10 Noroeste 0 -- -- 50
2017-11-07 21:00:00 15.3 3 Noroeste 13 Norte 0 -- -- 47
2017-11-07 20:00:00 15.6 11 Norte 18 Norte 0 -- -- 46
2017-11-07 19:00:00 16.9 12 Norte 19 Norte 0 -- -- 43
2017-11-07 18:00:00 19.2 10 Norte 24 Norte 0 -- -- 41
2017-11-07 17:00:00 20.2 14 Norte 32 Norte 0 -- -- 37
2017-11-07 16:00:00 20.2 17 Noroeste 33 Noroeste 0 -- -- 38
2017-11-07 15:00:00 20.5 15 Norte 26 Norte 0 -- -- 37
2017-11-07 14:00:00 19.8 11 Noroeste 18 Noroeste 0 -- -- 36
2017-11-07 13:00:00 18.8 8 Noroeste 17 Nordeste 0 -- -- 40
2017-11-07 12:00:00 17.5 4 Nordeste 13 Nordeste 0 -- -- 41
2017-11-07 11:00:00 15.7 7 Nordeste 12 Nordeste 0 -- -- 45
2017-11-07 10:00:00 14.2 5 Este 8 Este 0 -- -- 57
2017-11-07 09:00:00 11.3 4 Este 5 Este 0 -- -- 69
2017-11-07 08:00:00 9.2 2 Oeste 9 Noroeste 0 -- -- 76
2017-11-07 07:00:00 10.2 0 Calma 3 Este 0 -- -- 66
2017-11-07 06:00:00 10.1 4 Noroeste 6 Noroeste 0 -- -- 66
2017-11-07 05:00:00 11.6 2 Norte 4 Norte 0 -- -- 60
2017-11-07 04:00:00 11.8 3 Nordeste 8 Nordeste 0 -- -- 60
2017-11-07 03:00:00 12 4 Nordeste 8 Nordeste 0 -- -- 58
2017-11-07 02:00:00 12.5 4 Norte 14 Nordeste 0 -- -- 56
2017-11-07 01:00:00 12.1 10 Nordeste 14 Nordeste 0 -- -- 58
2017-11-07 00:00:00 12.9 10 Nordeste 15 Nordeste 0 -- -- 55
2017-11-06 23:00:00 13.2 7 Nordeste 16 Nordeste 0 -- -- 54
2017-11-06 22:00:00 14.1 11 Nordeste 18 Nordeste 0 -- -- 51
2017-11-06 21:00:00 15.1 11 Este 15 Nordeste 0 -- -- 47
2017-11-06 20:00:00 15.9 10 Nordeste 15 Este 0 -- -- 45
2017-11-06 19:00:00 17.6 5 Nordeste 11 Este 0 -- -- 40
2017-11-06 18:00:00 19.7 8 Este 19 Este 0 -- -- 34
2017-11-06 17:00:00 20.4 9 Nordeste 24 Sudeste 0 -- -- 33
2017-11-06 16:00:00 20.7 12 Este 24 Nordeste 0 -- -- 33
2017-11-06 15:00:00 20.3 15 Nordeste 26 Este 0 -- -- 33
2017-11-06 14:00:00 19.6 17 Nordeste 31 Este 0 -- -- 36
2017-11-06 13:00:00 19.1 16 Este 37 Este 0 -- -- 37
2017-11-06 12:00:00 18.3 21 Este 36 Este 0 -- -- 39
2017-11-06 11:00:00 16.8 18 Este 30 Este 0 -- -- 45
2017-11-06 10:00:00 14.5 14 Nordeste 21 Nordeste 0 -- -- 53
2017-11-06 09:00:00 12.6 10 Nordeste 13 Nordeste 0 -- -- 62
2017-11-06 08:00:00 11 8 Nordeste 12 Nordeste 0 -- -- 70
2017-11-06 07:00:00 10.2 5 Nordeste 8 Nordeste 0 -- -- 74
2017-11-06 06:00:00 10.3 0 Calma 4 Norte 0 -- -- 73
2017-11-06 05:00:00 10.5 0 Calma 7 Norte 0 -- -- 72
2017-11-06 04:00:00 11.2 6 Norte 12 Norte 0 -- -- 69
2017-11-06 03:00:00 10.6 8 Noroeste 18 Noroeste 0 -- -- 75
2017-11-06 02:00:00 11.8 5 Noroeste 13 Norte 0 -- -- 67
2017-11-06 01:00:00 12.9 8 Norte 13 Norte 0 -- -- 64
2017-11-06 00:00:00 12.6 4 Norte 15 Norte 0 -- -- 69
2017-11-05 23:00:00 13.7 8 Norte 17 Norte 0 -- -- 66
2017-11-05 22:00:00 14.5 7 Norte 19 Nordeste 0 -- -- 63
2017-11-05 21:00:00 15.6 11 Norte 18 Nordeste 0 -- -- 59
2017-11-05 20:00:00 15.8 10 Norte 19 Norte 0 -- -- 61
2017-11-05 19:00:00 16.7 11 Norte 19 Norte 0 -- -- 59
2017-11-05 18:00:00 18.1 15 Norte 30 Norte 0 -- -- 56
2017-11-05 17:00:00 18.7 17 Norte 30 Norte 0 -- -- 57
2017-11-05 16:00:00 18.6 19 Norte 31 Noroeste 0 -- -- 58
2017-11-05 15:00:00 18.4 18 Norte 32 Noroeste 0 -- -- 59
2017-11-05 14:00:00 17 20 Norte 35 Noroeste 0 -- -- 68
2017-11-05 13:00:00 16 20 Noroeste 31 Noroeste 0 -- -- 74
2017-11-05 12:00:00 15.1 17 Noroeste 25 Noroeste 0 -- -- 77
2017-11-05 11:00:00 14.2 14 Noroeste 25 Norte 0 -- -- 82
2017-11-05 10:00:00 12.7 17 Noroeste 26 Noroeste 0 -- -- 92
2017-11-05 09:00:00 11.4 17 Noroeste 23 Noroeste 0 -- -- 98
2017-11-05 08:00:00 11 12 Noroeste 24 Noroeste 0 -- -- 99
2017-11-05 07:00:00 11.1 12 Noroeste 21 Noroeste 0 -- -- 99
2017-11-05 06:00:00 11.3 13 Noroeste 23 Noroeste 0 -- -- 99
2017-11-05 05:00:00 11.1 15 Noroeste 24 Noroeste 0 -- -- 99
2017-11-05 04:00:00 11.9 17 Noroeste 23 Noroeste 0 -- -- 96
2017-11-05 03:00:00 12.3 13 Noroeste 20 Noroeste 0 -- -- 96
2017-11-05 02:00:00 12.1 13 Noroeste 17 Noroeste 0 -- -- 97
2017-11-05 01:00:00 12.1 9 Noroeste 21 Oeste 0 -- -- 96
2017-11-05 00:00:00 12.4 11 Noroeste 19 Oeste 0 -- -- 95
2017-11-04 23:00:00 13.1 11 Noroeste 21 Noroeste 0 -- -- 93
2017-11-04 22:00:00 14 13 Noroeste 21 Noroeste 0 -- -- 90
2017-11-04 21:00:00 14.5 12 Noroeste 19 Noroeste 0 -- -- 89
2017-11-04 20:00:00 14.9 10 Noroeste 21 Oeste 0 -- -- 85
2017-11-04 19:00:00 15.9 13 Noroeste 25 Noroeste 0 -- -- 82
2017-11-04 18:00:00 16.7 16 Noroeste 37 Noroeste 0 -- -- 77
2017-11-04 17:00:00 18.3 25 Noroeste 42 Noroeste 0 -- -- 69
2017-11-04 16:00:00 18.6 27 Noroeste 38 Noroeste 0 -- -- 66
2017-11-04 15:00:00 18.3 21 Oeste 37 Noroeste 0 -- -- 67
2017-11-04 14:00:00 16 19 Noroeste 39 Noroeste 0 -- -- 86
2017-11-04 13:00:00 18.4 18 Oeste 31 Oeste 0 -- -- 68
2017-11-04 12:00:00 17.2 18 Oeste 30 Noroeste 0 -- -- 73
2017-11-04 11:00:00 16.1 18 Noroeste 29 Oeste 0 -- -- 84
2017-11-04 10:00:00 15.2 12 Oeste 23 Oeste 0 -- -- 90
2017-11-04 09:00:00 14.2 10 Oeste 22 Noroeste 0 -- -- 94
2017-11-04 08:00:00 13.1 8 Oeste 17 Oeste 0 -- -- 96
2017-11-04 07:00:00 13.7 8 Oeste 17 Oeste 0 -- -- 95
2017-11-04 06:00:00 13.9 5 Oeste 18 Sudoeste 0 -- -- 94
2017-11-04 05:00:00 13.9 5 Sudoeste 13 Sur 0 -- -- 96
2017-11-04 04:00:00 14.3 8 Sur 14 Sur 0 -- -- 97
2017-11-04 03:00:00 14.3 5 Sur 18 Sur 0 -- -- 96
2017-11-04 02:00:00 14.5 11 Sur 19 Sudoeste 0.2 -- -- 93
2017-11-04 01:00:00 14.7 14 Sudoeste 27 Sudoeste 0.6 -- -- 91
2017-11-04 00:00:00 14.8 14 Sudoeste 21 Sudoeste 1.6 -- -- 94
2017-11-03 23:00:00 14.9 11 Sur 25 Sudeste 0 -- -- 97
2017-11-03 22:00:00 14.8 15 Sur 24 Sudeste 0 -- -- 96
2017-11-03 21:00:00 15.1 12 Sudoeste 20 Sudoeste 0 -- -- 91
2017-11-03 20:00:00 15.3 15 Sur 22 Sur 0 -- -- 93
2017-11-03 19:00:00 16.3 16 Sur 29 Sudoeste 0 -- -- 87
2017-11-03 18:00:00 17.4 20 Sur 31 Sur 0 -- -- 83
2017-11-03 17:00:00 18.7 18 Sudoeste 35 Sur 0 -- -- 72
2017-11-03 16:00:00 19.7 21 Sudoeste 35 Sur 0 -- -- 63
2017-11-03 15:00:00 19.7 18 Sudeste 28 Sudeste 0 -- -- 64
2017-11-03 14:00:00 20.4 13 Sur 22 Sur 0 -- -- 62
2017-11-03 13:00:00 20 8 Sur 17 Sur 0 -- -- 67
2017-11-03 12:00:00 18.5 7 Este 12 Sudeste 0 -- -- 83
2017-11-03 11:00:00 17 8 Este 12 Este 0 -- -- 92
2017-11-03 10:00:00 15.2 3 Este 10 Este 0 -- -- 100
2017-11-03 09:00:00 13.8 3 Este 7 Nordeste 0 -- -- 99
2017-11-03 08:00:00 13.6 3 Este 6 Oeste 0 -- -- 96
2017-11-03 07:00:00 14.1 5 Oeste 7 Oeste 0 -- -- 97
2017-11-03 06:00:00 14.4 5 Sudoeste 9 Sudoeste 0 -- -- 98
2017-11-03 05:00:00 14.9 7 Sudoeste 9 Sudoeste 0 -- -- 96
2017-11-03 04:00:00 15.2 5 Sudoeste 15 Sudoeste 0 -- -- 96
2017-11-03 03:00:00 15.4 5 Oeste 8 Oeste 2.8 -- -- 98
2017-11-03 02:00:00 15.4 3 Nordeste 10 Este 0.4 -- -- 98
2017-11-03 01:00:00 15.8 3 Norte 10 Sudeste 0 -- -- 95
2017-11-03 00:00:00 16.1 3 Sur 19 Sudoeste 8 -- -- 94
2017-11-02 23:00:00 16.9 9 Sur 17 Sur 0 -- -- 90
2017-11-02 22:00:00 17 7 Sur 17 Sur 0 -- -- 89
2017-11-02 21:00:00 16.9 6 Sur 16 Sudeste 0 -- -- 87
2017-11-02 20:00:00 17.2 9 Sur 24 Sur 0 -- -- 86
2017-11-02 19:00:00 17.7 19 Sur 28 Sur 0 -- -- 82
2017-11-02 18:00:00 19 12 Sur 27 Sur 0 -- -- 72
2017-11-02 17:00:00 19.8 17 Sur 29 Sur 0 -- -- 67
2017-11-02 16:00:00 19.5 18 Sur 33 Sur 0 -- -- 71
2017-11-02 15:00:00 19.6 23 Sur 34 Sur 0 -- -- 75
2017-11-02 14:00:00 19.8 15 Sudoeste 37 Sur 0 -- -- 70
2017-11-02 13:00:00 19.5 24 Sur 37 Sur 0 -- -- 72
2017-11-02 12:00:00 18.2 18 Sur 30 Sur 0 -- -- 84
2017-11-02 11:00:00 16.9 10 Sudeste 17 Sudeste 0 -- -- 95
2017-11-02 10:00:00 16.1 9 Sudeste 19 Sudeste 0 -- -- 96
2017-11-02 09:00:00 15.8 7 Sudeste 17 Sudeste 0 -- -- 97
2017-11-02 08:00:00 15.6 9 Sudeste 18 Sudeste 0 -- -- 97
2017-11-02 07:00:00 15.7 9 Sudeste 21 Sur 0 -- -- 97
2017-11-02 06:00:00 16 12 Sur 19 Sur 0 -- -- 96
2017-11-02 05:00:00 16.2 13 Sudoeste 29 Sur 0.4 -- -- 96
2017-11-02 04:00:00 16.3 9 Sur 33 Sur 0.8 -- -- 94
2017-11-02 03:00:00 16.6 13 Sudeste 26 Sudeste 0 -- -- 92
2017-11-02 02:00:00 17.1 13 Sur 28 Sur 0 -- -- 91
2017-11-02 01:00:00 17.5 13 Sur 29 Sur 0 -- -- 93
2017-11-02 00:00:00 17.6 17 Sur 25 Sur 0 -- -- 94
2017-11-01 23:00:00 17.5 17 Sudoeste 24 Sudoeste 0 -- -- 94
2017-11-01 22:00:00 17.5 12 Sur 21 Sudoeste 0 -- -- 94
2017-11-01 21:00:00 17.6 11 Sudoeste 19 Sur 0 -- -- 94
2017-11-01 20:00:00 17.5 10 Sur 22 Sudoeste 0 -- -- 92
2017-11-01 19:00:00 18.1 16 Sudoeste 32 Sudoeste 0 -- -- 88
2017-11-01 18:00:00 19.3 18 Sudoeste 41 Sudoeste 0 -- -- 80
2017-11-01 17:00:00 21 23 Sudoeste 41 Sur 0 -- -- 72
2017-11-01 16:00:00 20.6 22 Sur 41 Sudoeste 0 -- -- 68
2017-11-01 15:00:00 21 29 Sur 46 Sur 0 -- -- 66
2017-11-01 14:00:00 20.8 28 Sur 45 Sur 0 -- -- 65
2017-11-01 13:00:00 20 26 Sur 48 Sur 0 -- -- 68
2017-11-01 12:00:00 19.6 24 Sur 53 Sur 0 -- -- 69
2017-11-01 11:00:00 18.8 15 Sudeste 31 Sudeste 0 -- -- 70
2017-11-01 10:00:00 16 10 Este 15 Este 0 -- -- 77
2017-11-01 09:00:00 14.6 9 Este 23 Sudeste 0 -- -- 81
2017-11-01 08:00:00 13 9 Este 15 Sudeste 0 -- -- 87
2017-11-01 07:00:00 13.2 8 Este 12 Este 0 -- -- 86
2017-11-01 06:00:00 13.6 8 Este 14 Sudeste 0 -- -- 86
2017-11-01 05:00:00 14.2 9 Este 13 Sudeste 0 -- -- 84
2017-11-01 04:00:00 14.7 5 Este 9 Este 0 -- -- 83
2017-11-01 03:00:00 15.1 7 Este 12 Este 0 -- -- 82
2017-11-01 02:00:00 15.1 0 Calma 4 Nordeste 0 -- -- 86
2017-11-01 01:00:00 16.1 5 Este 14 Sur 0 -- -- 85
2017-11-01 00:00:00 17.4 11 Sur 19 Sudoeste 0 -- -- 85
2017-10-31 23:00:00 18 14 Sudoeste 17 Sur 0 -- -- 79
2017-10-31 22:00:00 18.2 12 Sur 15 Sur 0 -- -- 75
2017-10-31 21:00:00 18.6 9 Sur 13 Sudoeste 0 -- -- 72
2017-10-31 20:00:00 19.3 9 Sudoeste 13 Sudoeste 0 -- -- 67
2017-10-31 19:00:00 20.4 10 Sudoeste 15 Sudoeste 0 -- -- 63
2017-10-31 18:00:00 22.6 11 Sur 20 Sur 0 -- -- 52
2017-10-31 17:00:00 23.6 12 Sur 23 Sudeste 0 -- -- 47
2017-10-31 16:00:00 24 15 Sur 27 Sur 0 -- -- 45
2017-10-31 15:00:00 23.6 15 Sudeste 27 Sur 0 -- -- 46
2017-10-31 14:00:00 23.2 17 Sur 29 Sur 0 -- -- 47
2017-10-31 13:00:00 22.4 13 Sudeste 23 Sudeste 0 -- -- 52
2017-10-31 12:00:00 21.3 9 Sudeste 19 Sur 0 -- -- 56
2017-10-31 11:00:00 19.7 5 Sudeste 14 Este 0 -- -- 62
2017-10-31 10:00:00 17.6 6 Sudeste 10 Este 0 -- -- 71
2017-10-31 09:00:00 16.1 5 Sudeste 13 Sudeste 0 -- -- 78
2017-10-31 08:00:00 14.1 5 Este 13 Este 0 -- -- 84
2017-10-31 07:00:00 14.1 4 Este 9 Sudeste 0 -- -- 86
2017-10-31 06:00:00 15.2 6 Este 11 Este 0 -- -- 87
2017-10-31 05:00:00 15.2 6 Sudeste 7 Sudeste 0 -- -- 85
2017-10-31 04:00:00 15.2 5 Este 7 Nordeste 0 -- -- 87
2017-10-31 03:00:00 15.6 2 Este 5 Sudeste 0 -- -- 87
2017-10-31 02:00:00 16 5 Este 7 Este 0 -- -- 86
2017-10-31 01:00:00 16.4 4 Este 7 Este 0 -- -- 85
2017-10-31 00:00:00 16.2 5 Este 6 Este 0 -- -- 83
2017-10-30 23:00:00 16.7 4 Sudeste 8 Sur 0 -- -- 74
2017-10-30 22:00:00 16.9 4 Sur 10 Oeste 0 -- -- 76
2017-10-30 21:00:00 17.6 8 Oeste 15 Oeste 0 -- -- 77
2017-10-30 20:00:00 17.9 12 Sudoeste 18 Sudoeste 0 -- -- 81
2017-10-30 19:00:00 19.2 13 Sudoeste 21 Sur 0 -- -- 74
2017-10-30 18:00:00 21.6 18 Sur 22 Sur 0 -- -- 65
2017-10-30 17:00:00 23.5 14 Sur 21 Sur 0 -- -- 58
2017-10-30 16:00:00 24 14 Sur 24 Sur 0 -- -- 55
2017-10-30 15:00:00 24 14 Sur 24 Sudoeste 0 -- -- 54
2017-10-30 14:00:00 23.5 11 Sur 28 Sudoeste 0 -- -- 54
2017-10-30 13:00:00 22.5 13 Sur 22 Sudeste 0 -- -- 59
2017-10-30 12:00:00 20.8 11 Sur 22 Sudeste 0 -- -- 67
2017-10-30 11:00:00 18.6 10 Este 20 Sur 0 -- -- 80
2017-10-30 10:00:00 17.3 10 Sudeste 22 Sudeste 0 -- -- 89
2017-10-30 09:00:00 14.8 8 Este 22 Sudeste 0 -- -- 94
2017-10-30 08:00:00 15.4 16 Este 22 Sudeste 0 -- -- 89
2017-10-30 07:00:00 15.2 6 Este 11 Este 0 -- -- 79
2017-10-30 06:00:00 14.5 3 Este 5 Este 0 -- -- 73
2017-10-30 05:00:00 14.7 0 Calma 4 Norte 0 -- -- 72
2017-10-30 04:00:00 14.6 3 Norte 6 Noroeste 0 -- -- 73
2017-10-30 03:00:00 16.1 4 Nordeste 8 Nordeste 0 -- -- 66
2017-10-30 02:00:00 15.7 3 Nordeste 13 Noroeste 0 -- -- 69
2017-10-30 01:00:00 15.9 9 Noroeste 17 Noroeste 0 -- -- 72
2017-10-30 00:00:00 17.2 12 Noroeste 19 Noroeste 0 -- -- 60
2017-10-29 23:00:00 18.5 9 Noroeste 18 Noroeste 0 -- -- 52
2017-10-29 22:00:00 -- 4 Oeste 9 Oeste 0 -- -- --
2017-10-29 21:00:00 20.9 6 Oeste 10 Sudoeste 0 -- -- 54
2017-10-29 20:00:00 21.2 7 Sudoeste 15 Sudoeste 0 -- -- 58
2017-10-29 19:00:00 23.1 10 Sudoeste 24 Sur 0 -- -- 52
2017-10-29 18:00:00 27.2 7 Oeste 13 Sudoeste 0 -- -- 32
2017-10-29 17:00:00 27.8 6 Noroeste 18 Noroeste 0 -- -- 31
2017-10-29 16:00:00 27.6 3 Noroeste 14 Norte 0 -- -- 32
2017-10-29 15:00:00 27.1 4 Este 10 Sur 0 -- -- 33
2017-10-29 14:00:00 26 6 Sur 10 Sur 0 -- -- 38
2017-10-29 13:00:00 24.1 3 Norte 10 Noroeste 0 -- -- 44
2017-10-29 12:00:00 22.6 6 Este 14 Este 0 -- -- 48
2017-10-29 11:00:00 20.8 8 Este 17 Este 0 -- -- 56
2017-10-29 10:00:00 19 7 Este 13 Este 0 -- -- 59
2017-10-29 09:00:00 16 4 Este 8 Este 0 -- -- 72
2017-10-29 08:00:00 14 3 Este 8 Este 0 -- -- 79
2017-10-29 07:00:00 13.4 3 Este 8 Nordeste 0 -- -- 73
2017-10-29 06:00:00 14.1 4 Nordeste 6 Nordeste 0 -- -- 71
2017-10-29 05:00:00 15.5 0 Calma 5 Noroeste 0 -- -- 87
2017-10-29 04:00:00 16.2 3 Oeste 8 Oeste 0 -- -- 85
2017-10-29 03:00:00 16.2 3 Noroeste 5 Sudoeste 0 -- -- 83
2017-10-29 02:00:00 17.2 5 Sudoeste 15 Sudoeste 0 -- -- 78
2017-10-29 01:00:00 17.8 4 Sudoeste 6 Sudoeste 0 -- -- 59
2017-10-29 00:00:00 18.1 3 Oeste 5 Sudoeste 0 -- -- 53
2017-10-28 23:00:00 18.8 0 Calma 3 Sudoeste 0 -- -- 50
2017-10-28 22:00:00 19.5 0 Calma 17 Sudoeste 0 -- -- 48
2017-10-28 21:00:00 21.1 15 Sudoeste 23 Sur 0 -- -- 41
2017-10-28 20:00:00 21.9 20 Sudoeste 30 Sur 0 -- -- 45
2017-10-28 19:00:00 24.5 25 Sur 35 Sur 0 -- -- 31
2017-10-28 18:00:00 27.9 22 Sur 34 Sudoeste 0 -- -- 31
2017-10-28 17:00:00 29.7 19 Sur 31 Sur 0 -- -- 24
2017-10-28 16:00:00 31.7 8 Sur 15 Este 0 -- -- 17
2017-10-28 15:00:00 31.1 7 Sudeste 13 Sudeste 0 -- -- 20
2017-10-28 14:00:00 30.4 5 Sudeste 10 Sudeste 0 -- -- 21
2017-10-28 13:00:00 28.6 6 Este 16 Sudeste 0 -- -- 23
2017-10-28 12:00:00 26.8 6 Nordeste 12 Este 0 -- -- 26
2017-10-28 11:00:00 23.7 4 Este 7 Este 0 -- -- 32
2017-10-28 10:00:00 19.3 2 Noroeste 9 Noroeste 0 -- -- 46
2017-10-28 09:00:00 21.2 7 Este 12 Este 0 -- -- 34
2017-10-28 08:00:00 20.4 0 Calma 4 Nordeste 0 -- -- 36
2017-10-28 07:00:00 19.2 3 Noroeste 5 Oeste 0 -- -- 39
2017-10-28 06:00:00 19.1 2 Norte 5 Oeste 0 -- -- 40
2017-10-28 05:00:00 18.9 7 Oeste 12 Noroeste 0 -- -- 44
2017-10-28 04:00:00 21 9 Noroeste 13 Noroeste 0 -- -- 38
2017-10-28 03:00:00 21.7 5 Noroeste 9 Noroeste 0 -- -- 35
2017-10-28 02:00:00 21.5 5 Norte 11 Noroeste 0 -- -- 36
2017-10-28 01:00:00 21.7 0 Calma 6 Norte 0 -- -- 36
2017-10-28 00:00:00 22.1 0 Calma 3 Norte 0 -- -- 38
2017-10-27 23:00:00 23.1 2 Este 7 Este 0 -- -- 36
2017-10-27 22:00:00 23.5 4 Sur 8 Sudoeste 0 -- -- 38
2017-10-27 21:00:00 24.7 8 Sudoeste 14 Sur 0 -- -- 36
2017-10-27 20:00:00 26.6 8 Sudoeste 15 Sudoeste 0 -- -- 27
2017-10-27 19:00:00 29.6 10 Sur 16 Sur 0 -- -- 22
2017-10-27 18:00:00 31.3 6 Este 18 Sudeste 0 -- -- 17
2017-10-27 17:00:00 31.7 6 Sudeste 15 Sur 0 -- -- 16
2017-10-27 16:00:00 30.5 8 Nordeste 18 Nordeste 0 -- -- 17
2017-10-27 15:00:00 30.4 6 Sur 21 Sudeste 0 -- -- 20
2017-10-27 14:00:00 28.7 8 Este 21 Este 0 -- -- 23
2017-10-27 13:00:00 26.8 12 Sudeste 25 Este 0 -- -- 25
2017-10-27 12:00:00 24.6 11 Este 23 Este 0 -- -- 31
2017-10-27 11:00:00 21.8 10 Este 22 Este 0 -- -- 38
2017-10-27 10:00:00 19.9 7 Este 17 Este 0 -- -- 43
2017-10-27 09:00:00 16.6 10 Este 13 Este 0 -- -- 54
2017-10-27 08:00:00 17.9 8 Este 14 Este 0 -- -- 49
2017-10-27 07:00:00 17.7 7 Este 11 Este 0 -- -- 48
2017-10-27 06:00:00 18.2 7 Este 12 Este 0 -- -- 48
2017-10-27 05:00:00 19 9 Este 13 Este 0 -- -- 44
2017-10-27 04:00:00 20 6 Este 12 Este 0 -- -- 42
2017-10-27 03:00:00 20.9 4 Este 9 Sudeste 0 -- -- 40
2017-10-27 02:00:00 21.2 6 Sudeste 10 Este 0 -- -- 40
2017-10-27 01:00:00 21.9 6 Este 8 Este 0 -- -- 37
2017-10-27 00:00:00 21.8 4 Este 6 Este 0 -- -- 37
2017-10-26 23:00:00 22.8 5 Este 6 Este 0 -- -- 33
2017-10-26 22:00:00 24.4 5 Sudeste 10 Sudeste 0 -- -- 30
2017-10-26 21:00:00 24.8 3 Este 15 Sudeste 0 -- -- 29
2017-10-26 20:00:00 26.1 2 Sudeste 19 Sur 0 -- -- 26
2017-10-26 19:00:00 28.4 9 Sudeste 32 Este 0 -- -- 18
2017-10-26 18:00:00 29.5 18 Este 28 Este 0 -- -- 20
2017-10-26 17:00:00 29.7 17 Este 28 Nordeste 0 -- -- 21
2017-10-26 16:00:00 29.4 12 Este 27 Este 0 -- -- 23
2017-10-26 15:00:00 28.7 14 Este 28 Sudeste 0 -- -- 25
2017-10-26 14:00:00 27.3 11 Este 22 Este 0 -- -- 30
2017-10-26 13:00:00 25.5 10 Este 22 Sudeste 0 -- -- 35
2017-10-26 12:00:00 22.9 10 Este 22 Este 0 -- -- 41
2017-10-26 11:00:00 20.5 12 Este 19 Este 0 -- -- 47
2017-10-26 10:00:00 18 9 Este 14 Este 0 -- -- 54
2017-10-26 09:00:00 16.2 8 Este 14 Este 0 -- -- 60
2017-10-26 08:00:00 16.2 8 Este 13 Este 0 -- -- 61
2017-10-26 07:00:00 16.2 5 Este 8 Este 0 -- -- 72
2017-10-26 06:00:00 16.1 3 Este 8 Este 0 -- -- 77
2017-10-26 05:00:00 17.1 5 Nordeste 7 Nordeste 0 -- -- 75
2017-10-26 04:00:00 17 2 Nordeste 4 Nordeste 0 -- -- 75
2017-10-26 03:00:00 17.6 4 Este 5 Este 0 -- -- 75
2017-10-26 02:00:00 17.6 3 Este 6 Este 0 -- -- 76
2017-10-26 01:00:00 17.7 2 Este 5 Este 0 -- -- 77
2017-10-26 00:00:00 18.5 3 Este 4 Nordeste 0 -- -- 74
2017-10-25 23:00:00 19.5 2 Sur 12 Sur 0 -- -- 71
2017-10-25 22:00:00 20.4 9 Sur 14 Sur 0 -- -- 67
2017-10-25 21:00:00 20.8 9 Sur 12 Sur 0 -- -- 64
2017-10-25 20:00:00 21.9 9 Sur 20 Sudoeste 0 -- -- 59
2017-10-25 19:00:00 23.9 15 Sudoeste 26 Sur 0 -- -- 51
2017-10-25 18:00:00 25.5 14 Sur 30 Sur 0 -- -- 44
2017-10-25 17:00:00 25.7 17 Sur 31 Sudeste 0 -- -- 43
2017-10-25 16:00:00 25.5 20 Sur 31 Sur 0 -- -- 40
2017-10-25 15:00:00 25.2 13 Sur 33 Sur 0 -- -- 39
2017-10-25 14:00:00 24 19 Sur 39 Sur 0 -- -- 38
2017-10-25 13:00:00 22.9 23 Sur 36 Sur 0 -- -- 38
2017-10-25 12:00:00 21.5 12 Sudeste 21 Sudeste 0 -- -- 40
2017-10-25 11:00:00 19.2 13 Sudeste 23 Sudeste 0 -- -- 46
2017-10-25 10:00:00 15.6 8 Este 13 Este 0 -- -- 62
2017-10-25 09:00:00 13.9 8 Este 13 Este 0 -- -- 68
2017-10-25 08:00:00 14.1 9 Este 13 Nordeste 0 -- -- 68
2017-10-25 07:00:00 14.3 7 Este 11 Este 0 -- -- 78
2017-10-25 06:00:00 15.5 0 Calma 9 Este 0 -- -- 71
2017-10-25 05:00:00 16.8 5 Sudeste 13 Sudeste 0 -- -- 63
2017-10-25 04:00:00 16 6 Este 8 Este 0 -- -- 78
2017-10-25 03:00:00 16.1 4 Este 8 Este 0 -- -- 79
2017-10-25 02:00:00 17.1 6 Este 8 Este 0 -- -- 75
2017-10-25 01:00:00 17.9 0 Calma 12 Sur 0 -- -- 73
2017-10-25 00:00:00 18.9 6 Sur 20 Sur 0 -- -- 69